Time;durP1;ratioP1;P1;durP2;ratioP2;P2;SDS_P1;SDS_P2;PMS_P1;PMS_P2;Temp;Humidity;BMP_temperature;BMP_pressure;BME280_temperature;BME280_humidity;BME280_pressure;Samples;Min_cycle;Max_cycle;Signal;HPM_P1;HPM_P2
2024/04/14 00:00:44;;;;;;;10.60;6.60;;;;;;;;;;5486219;26;20006;-60
2024/04/14 00:03:15;;;;;;;8.93;6.50;;;;;;;;;;5481764;26;20792;-60
2024/04/14 00:05:42;;;;;;;7.68;6.13;;;;;;;;;;5486408;26;20464;-59
2024/04/14 00:08:11;;;;;;;8.20;5.97;;;;;;;;;;5486291;26;20002;-60
2024/04/14 00:10:37;;;;;;;7.47;6.05;;;;;;;;;;5486592;26;20443;-60
2024/04/14 00:13:06;;;;;;;8.25;5.82;;;;;;;;;;5486329;26;20085;-60
2024/04/14 00:15:32;;;;;;;7.10;5.63;;;;;;;;;;5482585;26;20013;-60
2024/04/14 00:18:03;;;;;;;7.20;5.30;;;;;;;;;;5487535;26;20299;-60
2024/04/14 00:20:29;;;;;;;11.68;6.65;;;;;;;;;;5490260;26;19998;-60
2024/04/14 00:22:57;;;;;;;7.60;5.53;;;;;;;;;;5489706;26;20008;-60
2024/04/14 00:25:23;;;;;;;7.80;5.43;;;;;;;;;;5490092;26;19994;-60
2024/04/14 00:27:52;;;;;;;7.43;5.32;;;;;;;;;;5489688;26;20021;-60
2024/04/14 00:30:18;;;;;;;6.88;5.53;;;;;;;;;;5487972;26;20013;-59
2024/04/14 00:32:47;;;;;;;7.72;4.80;;;;;;;;;;5488907;26;20714;-60
2024/04/14 00:35:15;;;;;;;6.55;5.38;;;;;;;;;;5489823;26;20002;-60
2024/04/14 00:37:44;;;;;;;8.35;5.97;;;;;;;;;;5489754;26;20009;-60
2024/04/14 00:40:10;;;;;;;7.15;5.38;;;;;;;;;;5489800;26;19998;-60
2024/04/14 00:42:39;;;;;;;8.95;5.28;;;;;;;;;;5489945;26;20002;-61
2024/04/14 00:45:06;;;;;;;8.13;5.30;;;;;;;;;;5489588;26;20086;-60
2024/04/14 00:47:34;;;;;;;7.63;5.32;;;;;;;;;;5489421;26;20013;-59
2024/04/14 00:50:00;;;;;;;7.47;4.60;;;;;;;;;;5489907;26;20009;-59
2024/04/14 00:52:31;;;;;;;7.57;5.30;;;;;;;;;;5486935;26;19999;-59
2024/04/14 00:54:57;;;;;;;9.02;5.70;;;;;;;;;;5483787;26;20507;-59
2024/04/14 00:57:26;;;;;;;7.88;5.03;;;;;;;;;;5487261;26;20010;-60
2024/04/14 00:59:53;;;;;;;8.40;6.20;;;;;;;;;;5489239;26;20013;-60
2024/04/14 01:02:21;;;;;;;9.60;5.95;;;;;;;;;;5489171;26;20005;-59
2024/04/14 01:04:47;;;;;;;9.85;5.95;;;;;;;;;;5489575;26;19994;-61
2024/04/14 01:07:16;;;;;;;7.63;4.82;;;;;;;;;;5489307;26;20013;-61
2024/04/14 01:09:48;;;;;;;7.28;5.68;;;;;;;;;;5484779;26;20014;-61
2024/04/14 01:12:14;;;;;;;8.20;5.40;;;;;;;;;;5479298;26;19999;-61
2024/04/14 01:14:43;;;;;;;7.47;5.53;;;;;;;;;;5488768;26;20421;-60
2024/04/14 01:17:09;;;;;;;8.02;4.97;;;;;;;;;;5480121;26;20002;-61
2024/04/14 01:19:38;;;;;;;8.27;5.03;;;;;;;;;;5489264;26;20013;-61
2024/04/14 01:22:04;;;;;;;9.25;5.57;;;;;;;;;;5481292;26;20006;-61
2024/04/14 01:24:33;;;;;;;7.20;4.95;;;;;;;;;;5487932;26;20013;-60
2024/04/14 01:27:01;;;;;;;9.70;5.40;;;;;;;;;;5488940;26;20013;-61
2024/04/14 01:29:30;;;;;;;7.07;5.18;;;;;;;;;;5489348;26;20434;-60
2024/04/14 01:31:55;;;;;;;8.68;5.80;;;;;;;;;;5488985;26;20422;-59
2024/04/14 01:34:24;;;;;;;7.53;6.10;;;;;;;;;;5488869;26;19994;-61
2024/04/14 01:36:50;;;;;;;8.48;5.32;;;;;;;;;;5489024;26;20008;-61
2024/04/14 01:39:19;;;;;;;8.95;5.32;;;;;;;;;;5489192;26;20079;-60
2024/04/14 01:41:45;;;;;;;7.78;5.13;;;;;;;;;;5488932;26;19998;-60
2024/04/14 01:44:16;;;;;;;7.18;4.30;;;;;;;;;;5488647;26;19994;-57
2024/04/14 01:46:42;;;;;;;8.30;5.00;;;;;;;;;;5488774;26;20383;-57
2024/04/14 01:49:11;;;;;;;7.50;5.10;;;;;;;;;;5488695;26;19998;-60
2024/04/14 01:51:36;;;;;;;9.88;4.90;;;;;;;;;;5488649;26;20018;-59
2024/04/14 01:54:05;;;;;;;6.60;4.60;;;;;;;;;;5488405;26;20017;-60
2024/04/14 01:56:31;;;;;;;7.20;4.55;;;;;;;;;;5488971;26;20002;-60
2024/04/14 01:58:59;;;;;;;10.25;4.95;;;;;;;;;;5486421;26;20013;-61
2024/04/14 02:01:28;;;;;;;6.72;4.45;;;;;;;;;;5487276;26;20067;-60
2024/04/14 02:03:57;;;;;;;6.97;4.80;;;;;;;;;;5480249;26;20089;-61
2024/04/14 02:06:22;;;;;;;9.65;5.57;;;;;;;;;;5488726;26;20003;-60
2024/04/14 02:08:53;;;;;;;8.95;5.03;;;;;;;;;;5489132;26;20009;-60
2024/04/14 02:11:19;;;;;;;6.38;4.55;;;;;;;;;;5488935;26;20013;-61
2024/04/14 02:13:48;;;;;;;6.18;4.78;;;;;;;;;;5488601;26;20470;-60
2024/04/14 02:16:14;;;;;;;7.03;3.78;;;;;;;;;;5488168;26;20007;-60
2024/04/14 02:18:45;;;;;;;5.53;3.50;;;;;;;;;;5488395;26;20429;-60
2024/04/14 02:21:11;;;;;;;5.32;3.60;;;;;;;;;;5488372;26;20013;-60
2024/04/14 02:23:40;;;;;;;6.53;3.55;;;;;;;;;;5488179;26;20361;-59
2024/04/14 02:26:07;;;;;;;8.07;3.63;;;;;;;;;;5488234;26;19995;-60
2024/04/14 02:28:35;;;;;;;5.70;3.53;;;;;;;;;;5488554;26;20408;-59
2024/04/14 02:31:01;;;;;;;6.68;3.40;;;;;;;;;;5488520;26;20075;-58
2024/04/14 02:33:30;;;;;;;6.80;3.92;;;;;;;;;;5488293;26;20014;-60
2024/04/14 02:36:00;;;;;;;5.43;3.08;;;;;;;;;;5488633;26;20013;-60
2024/04/14 02:38:30;;;;;;;6.72;4.57;;;;;;;;;;5487536;26;19998;-60
2024/04/14 02:40:57;;;;;;;6.60;3.92;;;;;;;;;;5488259;26;19994;-60
2024/04/14 02:43:26;;;;;;;6.18;4.40;;;;;;;;;;5488028;26;19994;-60
2024/04/14 02:45:52;;;;;;;8.38;5.05;;;;;;;;;;5488051;26;19998;-60
2024/04/14 02:48:21;;;;;;;7.00;4.65;;;;;;;;;;5487943;26;20344;-60
2024/04/14 02:50:47;;;;;;;7.63;4.95;;;;;;;;;;5488305;26;19994;-60
2024/04/14 02:53:19;;;;;;;6.95;4.60;;;;;;;;;;5488599;26;19994;-60
2024/04/14 02:55:45;;;;;;;5.22;4.53;;;;;;;;;;5487801;26;19999;-60
2024/04/14 02:58:14;;;;;;;6.68;4.18;;;;;;;;;;5487353;26;20070;-60
2024/04/14 03:00:40;;;;;;;7.80;4.32;;;;;;;;;;5487915;26;20330;-61
2024/04/14 03:03:08;;;;;;;6.90;4.57;;;;;;;;;;5487918;26;20010;-60
2024/04/14 03:05:34;;;;;;;6.85;3.90;;;;;;;;;;5475410;26;19994;-61
2024/04/14 03:08:04;;;;;;;6.78;4.65;;;;;;;;;;5488015;26;20394;-61
2024/04/14 03:10:33;;;;;;;7.40;4.67;;;;;;;;;;5486997;26;20005;-61
2024/04/14 03:13:01;;;;;;;8.90;4.40;;;;;;;;;;5487625;26;20564;-60
2024/04/14 03:15:27;;;;;;;9.07;5.10;;;;;;;;;;5487904;26;20002;-61
2024/04/14 03:17:55;;;;;;;10.80;4.32;;;;;;;;;;5487671;26;20044;-61
2024/04/14 03:20:21;;;;;;;8.00;4.88;;;;;;;;;;5487687;26;20005;-61
2024/04/14 03:22:50;;;;;;;8.07;4.38;;;;;;;;;;5487794;26;20010;-61
2024/04/14 03:25:16;;;;;;;6.10;4.28;;;;;;;;;;5487748;26;20445;-60
2024/04/14 03:27:47;;;;;;;7.20;4.63;;;;;;;;;;5487147;26;20086;-61
2024/04/14 03:30:14;;;;;;;6.47;4.22;;;;;;;;;;5487787;26;20117;-58
2024/04/14 03:32:42;;;;;;;8.50;4.32;;;;;;;;;;5487249;26;20605;-60
2024/04/14 03:35:08;;;;;;;8.13;4.45;;;;;;;;;;5487280;26;20010;-61
2024/04/14 03:37:39;;;;;;;7.13;4.05;;;;;;;;;;5486910;26;20458;-60
2024/04/14 03:40:06;;;;;;;8.40;4.50;;;;;;;;;;5487237;26;20009;-60
2024/04/14 03:42:35;;;;;;;7.35;4.38;;;;;;;;;;5487044;26;20012;-60
2024/04/14 03:45:08;;;;;;;6.60;4.05;;;;;;;;;;5487346;26;20007;-60
2024/04/14 03:47:35;;;;;;;8.40;3.97;;;;;;;;;;5461862;26;20138;-60
2024/04/14 03:50:04;;;;;;;6.28;3.83;;;;;;;;;;5486345;26;19994;-60
2024/04/14 03:52:30;;;;;;;6.03;3.47;;;;;;;;;;5486928;26;20394;-60
2024/04/14 03:54:59;;;;;;;6.40;3.85;;;;;;;;;;5486935;26;20006;-60
2024/04/14 03:57:25;;;;;;;6.70;4.05;;;;;;;;;;5486970;26;20056;-60
2024/04/14 03:59:53;;;;;;;7.32;4.20;;;;;;;;;;5486954;26;19998;-61
2024/04/14 04:02:22;;;;;;;5.50;3.53;;;;;;;;;;5486194;26;20018;-61
2024/04/14 04:04:50;;;;;;;5.60;3.50;;;;;;;;;;5486285;26;20038;-60
2024/04/14 04:07:16;;;;;;;5.72;3.50;;;;;;;;;;5486956;26;20418;-60
2024/04/14 04:09:45;;;;;;;5.85;3.63;;;;;;;;;;5487067;26;20008;-60
2024/04/14 04:12:11;;;;;;;6.28;3.72;;;;;;;;;;5486535;26;20006;-58
2024/04/14 04:14:39;;;;;;;6.35;3.58;;;;;;;;;;5486625;26;19998;-60
2024/04/14 04:17:05;;;;;;;5.88;3.65;;;;;;;;;;5486908;26;20124;-59
2024/04/14 04:19:36;;;;;;;5.00;3.40;;;;;;;;;;5486388;26;20399;-60
2024/04/14 04:22:03;;;;;;;5.63;3.53;;;;;;;;;;5486581;26;20006;-59
2024/04/14 04:24:31;;;;;;;8.75;3.60;;;;;;;;;;5485801;26;20318;-59
2024/04/14 04:26:57;;;;;;;6.45;3.10;;;;;;;;;;5486319;26;20010;-60
2024/04/14 04:29:27;;;;;;;6.53;3.55;;;;;;;;;;5486515;26;20330;-60
2024/04/14 04:31:54;;;;;;;5.47;3.35;;;;;;;;;;5486522;26;19999;-60
2024/04/14 04:34:23;;;;;;;7.72;3.38;;;;;;;;;;5486119;26;20003;-60
2024/04/14 04:36:51;;;;;;;5.30;3.13;;;;;;;;;;5485989;26;20011;-60
2024/04/14 04:39:20;;;;;;;6.70;3.63;;;;;;;;;;5486581;26;20159;-60
2024/04/14 04:41:46;;;;;;;5.25;3.13;;;;;;;;;;5486611;26;20004;-60
2024/04/14 04:44:14;;;;;;;5.03;3.63;;;;;;;;;;5485375;26;19999;-60
2024/04/14 04:46:40;;;;;;;5.22;3.35;;;;;;;;;;5486328;26;20003;-60
2024/04/14 04:49:09;;;;;;;5.90;3.38;;;;;;;;;;5486390;26;20009;-60
2024/04/14 04:51:35;;;;;;;6.03;3.08;;;;;;;;;;5485582;26;19998;-62
2024/04/14 04:54:07;;;;;;;6.05;3.60;;;;;;;;;;5486032;26;20344;-60
2024/04/14 04:56:32;;;;;;;5.07;3.05;;;;;;;;;;5486544;26;20322;-62
2024/04/14 04:59:01;;;;;;;6.55;3.30;;;;;;;;;;5485820;26;20014;-60
2024/04/14 05:01:27;;;;;;;6.03;3.10;;;;;;;;;;5471524;26;20011;-60
2024/04/14 05:03:56;;;;;;;6.18;3.22;;;;;;;;;;5489607;26;20017;-60
2024/04/14 05:06:22;;;;;;;5.07;2.90;;;;;;;;;;5490069;26;20017;-60
2024/04/14 05:08:50;;;;;;;5.53;2.78;;;;;;;;;;5489951;26;20010;-60
2024/04/14 05:11:19;;;;;;;3.78;2.40;;;;;;;;;;5489776;26;20006;-60
2024/04/14 05:13:47;;;;;;;5.35;2.45;;;;;;;;;;5489445;26;20002;-60
2024/04/14 05:16:13;;;;;;;4.55;2.63;;;;;;;;;;5489026;26;19998;-59
2024/04/14 05:18:42;;;;;;;3.45;2.10;;;;;;;;;;5489743;26;19998;-59
2024/04/14 05:21:08;;;;;;;6.20;2.42;;;;;;;;;;5489776;26;20013;-60
2024/04/14 05:23:36;;;;;;;4.95;2.10;;;;;;;;;;5489456;26;20010;-59
2024/04/14 05:26:02;;;;;;;3.95;2.03;;;;;;;;;;5489349;26;20075;-59
2024/04/14 05:28:33;;;;;;;5.47;2.03;;;;;;;;;;5489499;26;20014;-61
2024/04/14 05:30:59;;;;;;;5.40;2.17;;;;;;;;;;5490008;26;20014;-61
2024/04/14 05:33:28;;;;;;;3.78;1.80;;;;;;;;;;5488607;26;20006;-61
2024/04/14 05:35:55;;;;;;;3.78;2.10;;;;;;;;;;5488268;26;20319;-61
2024/04/14 05:38:23;;;;;;;6.28;1.95;;;;;;;;;;5489221;26;20044;-61
2024/04/14 05:40:49;;;;;;;5.43;2.00;;;;;;;;;;5489160;26;20014;-60
2024/04/14 05:43:18;;;;;;;4.18;2.08;;;;;;;;;;5488869;26;20039;-59
2024/04/14 05:45:47;;;;;;;3.92;1.80;;;;;;;;;;5489952;26;20079;-60
2024/04/14 05:48:16;;;;;;;5.20;2.45;;;;;;;;;;5489451;26;20002;-60
2024/04/14 05:50:41;;;;;;;3.72;2.25;;;;;;;;;;5488871;26;20017;-60
2024/04/14 05:53:10;;;;;;;5.25;2.60;;;;;;;;;;5488401;26;20006;-60
2024/04/14 05:55:36;;;;;;;4.18;2.00;;;;;;;;;;5487805;26;20021;-60
2024/04/14 05:58:04;;;;;;;6.65;2.10;;;;;;;;;;5489093;26;20107;-58
2024/04/14 06:00:30;;;;;;;3.60;2.00;;;;;;;;;;5489021;26;20407;-59
2024/04/14 06:03:02;;;;;;;4.95;2.22;;;;;;;;;;5488711;26;20010;-60
2024/04/14 06:05:28;;;;;;;4.60;1.98;;;;;;;;;;5488678;26;20210;-60
2024/04/14 06:07:56;;;;;;;4.20;1.90;;;;;;;;;;5488639;26;20017;-60
2024/04/14 06:10:22;;;;;;;3.92;2.20;;;;;;;;;;5489096;26;20002;-60
2024/04/14 06:12:51;;;;;;;4.22;2.08;;;;;;;;;;5488621;26;19999;-61
2024/04/14 06:15:17;;;;;;;4.60;2.20;;;;;;;;;;5487965;26;20010;-59
2024/04/14 06:17:45;;;;;;;3.47;1.92;;;;;;;;;;5488823;26;20009;-60
2024/04/14 06:20:14;;;;;;;4.15;2.03;;;;;;;;;;5488671;26;20002;-62
2024/04/14 06:22:43;;;;;;;3.80;2.42;;;;;;;;;;5490350;26;20002;-58
2024/04/14 06:25:08;;;;;;;4.68;2.42;;;;;;;;;;5488952;26;20517;-58
2024/04/14 06:27:37;;;;;;;6.55;2.50;;;;;;;;;;5473607;26;20010;-58
2024/04/14 06:30:04;;;;;;;3.83;2.28;;;;;;;;;;5488268;26;20002;-59
2024/04/14 06:32:32;;;;;;;4.32;2.40;;;;;;;;;;5488170;26;20034;-59
2024/04/14 06:34:59;;;;;;;5.50;2.35;;;;;;;;;;5488708;26;20017;-60
2024/04/14 06:37:30;;;;;;;3.83;2.50;;;;;;;;;;5486252;26;20453;-59
2024/04/14 06:39:56;;;;;;;5.00;2.67;;;;;;;;;;5488427;26;20015;-59
2024/04/14 06:42:24;;;;;;;4.88;2.30;;;;;;;;;;5488089;26;20598;-61
2024/04/14 06:44:50;;;;;;;4.05;2.20;;;;;;;;;;5488012;26;20006;-60
2024/04/14 06:47:19;;;;;;;5.47;2.35;;;;;;;;;;5487266;26;20002;-61
2024/04/14 06:49:45;;;;;;;4.10;2.70;;;;;;;;;;5474470;26;20520;-61
2024/04/14 06:52:13;;;;;;;4.35;2.10;;;;;;;;;;5488163;26;20014;-60
2024/04/14 06:54:42;;;;;;;5.88;2.30;;;;;;;;;;5484334;26;20010;-60
2024/04/14 06:57:10;;;;;;;5.75;2.28;;;;;;;;;;5487994;26;20016;-61
2024/04/14 06:59:36;;;;;;;4.05;2.00;;;;;;;;;;5485272;26;20437;-60
2024/04/14 07:02:05;;;;;;;5.18;2.20;;;;;;;;;;5486321;26;20002;-60
2024/04/14 07:04:31;;;;;;;5.53;1.98;;;;;;;;;;5488475;26;20073;-61
2024/04/14 07:06:59;;;;;;;6.30;2.47;;;;;;;;;;5482679;26;20012;-60
2024/04/14 07:09:25;;;;;;;5.05;2.40;;;;;;;;;;5483885;26;20390;-58
2024/04/14 07:11:56;;;;;;;3.88;2.20;;;;;;;;;;5472043;26;20002;-59
2024/04/14 07:14:22;;;;;;;5.70;2.08;;;;;;;;;;5487645;26;20002;-61
2024/04/14 07:16:51;;;;;;;3.78;2.08;;;;;;;;;;5482351;26;20446;-61
2024/04/14 07:19:17;;;;;;;6.40;2.55;;;;;;;;;;5473944;26;20007;-59
2024/04/14 07:21:45;;;;;;;3.80;2.35;;;;;;;;;;5487924;26;20090;-61
2024/04/14 07:24:12;;;;;;;4.55;2.40;;;;;;;;;;5487232;26;20074;-59
2024/04/14 07:26:40;;;;;;;4.43;2.40;;;;;;;;;;5487527;26;20040;-59
2024/04/14 07:29:09;;;;;;;4.20;2.38;;;;;;;;;;5487364;26;20024;-60
2024/04/14 07:31:37;;;;;;;4.03;2.10;;;;;;;;;;5486733;26;20070;-60
2024/04/14 07:34:03;;;;;;;4.57;2.50;;;;;;;;;;5486773;26;20017;-59
2024/04/14 07:36:32;;;;;;;4.47;2.55;;;;;;;;;;5487435;26;21675;-61
2024/04/14 07:38:58;;;;;;;4.40;2.40;;;;;;;;;;5487854;26;20013;-60
2024/04/14 07:41:26;;;;;;;3.90;2.05;;;;;;;;;;5488124;26;20006;-58
2024/04/14 07:43:52;;;;;;;6.18;2.63;;;;;;;;;;5472733;26;20084;-67
2024/04/14 07:46:27;;;;;;;6.00;2.60;;;;;;;;;;5464230;26;21347;-58
2024/04/14 07:48:53;;;;;;;5.20;2.70;;;;;;;;;;5478402;26;20009;-59
2024/04/14 07:51:21;;;;;;;4.05;2.50;;;;;;;;;;5470751;26;19998;-64
2024/04/14 07:53:47;;;;;;;4.95;2.72;;;;;;;;;;5466421;26;20521;-63
2024/04/14 07:56:16;;;;;;;31.92;11.23;;;;;;;;;;5473682;26;20006;-62
2024/04/14 07:58:42;;;;;;;19.50;8.98;;;;;;;;;;5469124;26;20056;-61
2024/04/14 08:01:10;;;;;;;7.30;3.72;;;;;;;;;;5475132;26;19999;-60
2024/04/14 08:03:39;;;;;;;12.98;4.50;;;;;;;;;;5473299;26;20438;-62
2024/04/14 08:06:07;;;;;;;5.65;2.90;;;;;;;;;;5486858;26;20041;-62
2024/04/14 08:08:33;;;;;;;6.97;2.88;;;;;;;;;;5487583;26;19994;-62
2024/04/14 08:11:02;;;;;;;6.72;2.78;;;;;;;;;;5487110;26;20349;-61
2024/04/14 08:13:28;;;;;;;6.82;2.70;;;;;;;;;;5487535;26;20010;-56
2024/04/14 08:15:57;;;;;;;7.75;3.83;;;;;;;;;;5486815;26;20002;-56
2024/04/14 08:18:23;;;;;;;5.72;2.33;;;;;;;;;;5487281;26;20080;-61
2024/04/14 08:21:02;;;;;;;5.07;2.53;;;;;;;;;;5487644;26;19998;-62
2024/04/14 08:23:28;;;;;;;6.07;2.80;;;;;;;;;;5487516;26;19998;-61
2024/04/14 08:25:57;;;;;;;4.55;2.13;;;;;;;;;;5487542;26;20074;-61
2024/04/14 08:28:23;;;;;;;4.10;2.25;;;;;;;;;;5486105;26;20018;-62
2024/04/14 08:30:51;;;;;;;4.85;2.22;;;;;;;;;;5486402;26;20059;-60
2024/04/14 08:33:17;;;;;;;4.85;2.50;;;;;;;;;;5487309;26;20067;-59
2024/04/14 08:35:46;;;;;;;5.95;2.60;;;;;;;;;;5487258;26;20010;-58
2024/04/14 08:38:15;;;;;;;5.13;2.70;;;;;;;;;;5489539;26;20079;-61
2024/04/14 08:40:53;;;;;;;4.20;2.25;;;;;;;;;;5490906;26;20014;-58
2024/04/14 08:43:19;;;;;;;4.40;2.20;;;;;;;;;;5490284;26;20018;-57
2024/04/14 08:45:48;;;;;;;4.32;2.40;;;;;;;;;;5487213;26;20014;-59
2024/04/14 08:48:16;;;;;;;3.50;1.80;;;;;;;;;;5490525;26;20018;-61
2024/04/14 08:50:46;;;;;;;5.28;2.60;;;;;;;;;;5490305;26;20080;-60
2024/04/14 08:53:17;;;;;;;4.30;2.15;;;;;;;;;;5490130;26;20429;-59
2024/04/14 08:55:46;;;;;;;4.55;2.58;;;;;;;;;;5489140;26;20395;-61
2024/04/14 08:58:16;;;;;;;6.15;2.40;;;;;;;;;;5489723;26;20013;-62
2024/04/14 09:00:44;;;;;;;4.47;2.30;;;;;;;;;;5488572;26;20013;-61
2024/04/14 09:03:13;;;;;;;4.20;2.17;;;;;;;;;;5482647;26;20006;-61
2024/04/14 09:05:40;;;;;;;5.00;2.10;;;;;;;;;;5477013;26;19998;-61
2024/04/14 09:08:09;;;;;;;6.18;2.13;;;;;;;;;;5485641;26;20453;-61
2024/04/14 09:10:38;;;;;;;4.10;2.38;;;;;;;;;;5480011;26;19998;-61
2024/04/14 09:13:08;;;;;;;4.07;2.22;;;;;;;;;;5482311;26;20100;-61
2024/04/14 09:15:38;;;;;;;4.97;2.42;;;;;;;;;;5483585;26;19998;-60
2024/04/14 09:18:08;;;;;;;4.75;2.53;;;;;;;;;;5489616;26;20034;-60
2024/04/14 09:20:33;;;;;;;4.60;2.33;;;;;;;;;;5480642;26;20094;-60
2024/04/14 09:23:02;;;;;;;4.43;2.20;;;;;;;;;;5489159;26;20009;-59
2024/04/14 09:25:28;;;;;;;4.90;2.88;;;;;;;;;;5479776;26;20351;-60
2024/04/14 09:28:07;;;;;;;4.22;2.08;;;;;;;;;;5483721;26;20074;-56
2024/04/14 09:30:34;;;;;;;5.18;2.20;;;;;;;;;;5485191;26;20084;-56
2024/04/14 09:33:03;;;;;;;6.10;2.65;;;;;;;;;;5488921;26;20001;-59
2024/04/14 09:35:29;;;;;;;4.85;2.20;;;;;;;;;;5481584;26;19999;-60
2024/04/14 09:37:58;;;;;;;4.70;2.03;;;;;;;;;;5488239;26;20070;-60
2024/04/14 09:40:25;;;;;;;5.67;2.33;;;;;;;;;;5475721;26;20117;-60
2024/04/14 09:42:57;;;;;;;5.38;2.13;;;;;;;;;;5480900;26;20005;-59
2024/04/14 09:45:27;;;;;;;6.60;2.38;;;;;;;;;;5478361;26;20002;-59
2024/04/14 09:47:57;;;;;;;5.13;2.53;;;;;;;;;;5483569;26;20017;-59
2024/04/14 09:50:23;;;;;;;3.92;2.03;;;;;;;;;;5479890;26;20453;-60
2024/04/14 09:52:52;;;;;;;4.82;2.80;;;;;;;;;;5482075;26;20017;-60
2024/04/14 09:55:19;;;;;;;3.85;2.30;;;;;;;;;;5488483;26;20082;-60
2024/04/14 09:57:47;;;;;;;4.85;2.30;;;;;;;;;;5488714;26;20029;-60
2024/04/14 10:00:13;;;;;;;5.05;2.53;;;;;;;;;;5488718;26;19998;-60
2024/04/14 10:02:50;;;;;;;5.25;2.35;;;;;;;;;;5488419;26;20456;-58
2024/04/14 10:05:17;;;;;;;4.53;2.35;;;;;;;;;;5489047;26;20047;-60
2024/04/14 10:07:47;;;;;;;5.28;2.60;;;;;;;;;;5487792;26;20341;-59
2024/04/14 10:10:15;;;;;;;4.57;2.20;;;;;;;;;;5477405;26;20014;-60
2024/04/14 10:12:41;;;;;;;5.97;2.03;;;;;;;;;;5488477;26;20272;-58
2024/04/14 10:15:11;;;;;;;4.97;2.08;;;;;;;;;;5485636;26;20010;-59
2024/04/14 10:17:37;;;;;;;3.90;2.10;;;;;;;;;;5488962;26;19998;-59
2024/04/14 10:20:14;;;;;;;4.85;2.40;;;;;;;;;;5489033;26;20459;-60
2024/04/14 10:22:41;;;;;;;6.20;2.30;;;;;;;;;;5484876;26;20055;-58
2024/04/14 10:25:21;;;;;;;4.93;2.40;;;;;;;;;;5488690;26;20465;-59
2024/04/14 10:27:47;;;;;;;4.22;2.40;;;;;;;;;;5488670;26;20336;-59
2024/04/14 10:30:22;;;;;;;4.50;2.60;;;;;;;;;;5488284;26;20002;-59
2024/04/14 10:33:00;;;;;;;4.05;2.15;;;;;;;;;;5488544;26;20002;-59
2024/04/14 10:35:31;;;;;;;4.93;2.47;;;;;;;;;;5488790;26;20006;-61
2024/04/14 10:37:57;;;;;;;4.22;2.17;;;;;;;;;;5488668;26;20446;-58
2024/04/14 10:40:25;;;;;;;6.63;2.20;;;;;;;;;;5488348;26;20013;-60
2024/04/14 10:42:52;;;;;;;3.88;2.17;;;;;;;;;;5488422;26;20438;-59
2024/04/14 10:45:27;;;;;;;5.10;2.33;;;;;;;;;;5488578;26;20078;-60
2024/04/14 10:47:55;;;;;;;3.53;2.22;;;;;;;;;;5488638;26;20061;-59
2024/04/14 10:50:25;;;;;;;5.15;2.42;;;;;;;;;;5488464;26;20399;-60
2024/04/14 10:52:53;;;;;;;6.45;2.30;;;;;;;;;;5488244;26;20445;-60
2024/04/14 10:55:22;;;;;;;5.55;2.67;;;;;;;;;;5488680;26;20437;-61
2024/04/14 10:57:48;;;;;;;3.80;2.50;;;;;;;;;;5489097;26;20354;-59
2024/04/14 11:00:16;;;;;;;4.40;2.55;;;;;;;;;;5487367;26;20429;-60
2024/04/14 11:02:43;;;;;;;4.10;2.22;;;;;;;;;;5486843;26;20462;-60
2024/04/14 11:05:12;;;;;;;5.32;2.50;;;;;;;;;;5488418;26;19999;-62
2024/04/14 11:07:39;;;;;;;3.90;2.13;;;;;;;;;;5488410;26;20030;-60
2024/04/14 11:10:11;;;;;;;4.78;2.28;;;;;;;;;;5468575;26;20002;-60
2024/04/14 11:12:38;;;;;;;6.57;2.80;;;;;;;;;;5479198;26;20009;-60
2024/04/14 11:15:07;;;;;;;4.85;2.78;;;;;;;;;;5488399;26;20006;-60
2024/04/14 11:17:33;;;;;;;5.20;2.70;;;;;;;;;;5488217;26;20530;-61
2024/04/14 11:20:02;;;;;;;3.97;2.35;;;;;;;;;;5487920;26;20006;-59
2024/04/14 11:22:28;;;;;;;4.75;2.80;;;;;;;;;;5487797;26;20013;-60
2024/04/14 11:24:56;;;;;;;5.60;2.65;;;;;;;;;;5487991;26;20010;-60
2024/04/14 11:27:25;;;;;;;6.47;3.08;;;;;;;;;;5487816;26;20002;-60
2024/04/14 11:29:54;;;;;;;3.60;2.20;;;;;;;;;;5469317;26;20017;-60
2024/04/14 11:32:33;;;;;;;3.75;2.90;;;;;;;;;;5487589;26;19998;-60
2024/04/14 11:35:03;;;;;;;5.60;2.92;;;;;;;;;;5487871;26;19998;-60
2024/04/14 11:37:29;;;;;;;4.40;2.40;;;;;;;;;;5487794;26;20006;-60
2024/04/14 11:39:59;;;;;;;6.25;2.70;;;;;;;;;;5484476;26;19998;-60
2024/04/14 11:42:28;;;;;;;4.32;2.55;;;;;;;;;;5472737;26;20006;-61
2024/04/14 11:44:58;;;;;;;4.23;2.60;;;;;;;;;;5484000;26;20513;-58
2024/04/14 11:47:25;;;;;;;5.07;2.53;;;;;;;;;;5487572;26;20082;-59
2024/04/14 11:49:54;;;;;;;3.55;2.25;;;;;;;;;;5487477;26;20017;-59
2024/04/14 11:52:20;;;;;;;5.10;2.53;;;;;;;;;;5487500;26;20343;-56
2024/04/14 11:54:49;;;;;;;6.18;2.75;;;;;;;;;;5487439;26;20345;-60
2024/04/14 11:57:14;;;;;;;4.40;2.25;;;;;;;;;;5487509;26;20002;-59
2024/04/14 11:59:46;;;;;;;4.10;2.20;;;;;;;;;;5487092;26;20002;-59
2024/04/14 12:02:12;;;;;;;4.97;2.47;;;;;;;;;;5487423;26;20421;-60
2024/04/14 12:04:40;;;;;;;3.95;2.30;;;;;;;;;;5487213;26;20074;-60
2024/04/14 12:07:06;;;;;;;4.63;2.40;;;;;;;;;;5487623;26;20002;-57
2024/04/14 12:09:35;;;;;;;4.38;2.35;;;;;;;;;;5487148;26;20480;-58
2024/04/14 12:12:01;;;;;;;5.22;2.53;;;;;;;;;;5487229;26;20078;-58
2024/04/14 12:14:29;;;;;;;4.75;2.33;;;;;;;;;;5487359;26;20433;-57
2024/04/14 12:16:59;;;;;;;4.05;2.28;;;;;;;;;;5487134;26;20434;-58
2024/04/14 12:19:28;;;;;;;4.90;2.58;;;;;;;;;;5487121;26;20364;-59
2024/04/14 12:21:54;;;;;;;4.95;2.28;;;;;;;;;;5487507;26;20002;-58
2024/04/14 12:24:23;;;;;;;5.97;2.80;;;;;;;;;;5487159;26;19998;-59
2024/04/14 12:26:49;;;;;;;6.15;2.60;;;;;;;;;;5487102;26;19998;-59
2024/04/14 12:29:18;;;;;;;4.13;2.58;;;;;;;;;;5486755;26;19998;-58
2024/04/14 12:31:43;;;;;;;5.10;2.45;;;;;;;;;;5486667;26;19998;-55
2024/04/14 12:34:15;;;;;;;5.47;2.58;;;;;;;;;;5486520;26;20009;-59
2024/04/14 12:36:41;;;;;;;4.22;2.00;;;;;;;;;;5486503;26;19998;-59
2024/04/14 12:39:09;;;;;;;4.38;2.33;;;;;;;;;;5486491;26;19998;-60
2024/04/14 12:41:35;;;;;;;5.63;2.25;;;;;;;;;;5486456;26;20082;-60
2024/04/14 12:44:03;;;;;;;4.30;2.60;;;;;;;;;;5486009;26;20381;-60
2024/04/14 12:46:29;;;;;;;4.72;2.58;;;;;;;;;;5486082;26;20446;-58
2024/04/14 12:48:58;;;;;;;5.63;2.30;;;;;;;;;;5486040;26;20074;-61
2024/04/14 12:51:26;;;;;;;3.75;2.00;;;;;;;;;;5485863;26;20078;-59
2024/04/14 12:53:55;;;;;;;3.97;2.30;;;;;;;;;;5485891;26;20002;-60
2024/04/14 12:56:21;;;;;;;4.13;2.33;;;;;;;;;;5485861;26;20078;-58
2024/04/14 12:58:49;;;;;;;4.50;2.30;;;;;;;;;;5472241;26;20010;-59
2024/04/14 13:01:15;;;;;;;4.20;2.22;;;;;;;;;;5457277;26;20017;-60
2024/04/14 13:03:44;;;;;;;4.10;2.60;;;;;;;;;;5485791;26;20012;-60
2024/04/14 13:06:09;;;;;;;5.72;3.42;;;;;;;;;;5485948;26;20002;-56
2024/04/14 13:08:41;;;;;;;8.23;4.20;;;;;;;;;;5485723;26;20078;-59
2024/04/14 13:11:06;;;;;;;8.55;5.10;;;;;;;;;;5485976;26;20018;-60
2024/04/14 13:13:35;;;;;;;6.88;3.78;;;;;;;;;;5486026;26;20002;-59
2024/04/14 13:16:02;;;;;;;4.78;3.03;;;;;;;;;;5486225;26;20446;-59
2024/04/14 13:18:31;;;;;;;6.85;3.13;;;;;;;;;;5486245;26;20002;-59
2024/04/14 13:20:57;;;;;;;5.60;2.70;;;;;;;;;;5485947;26;20009;-60
2024/04/14 13:23:26;;;;;;;3.83;2.47;;;;;;;;;;5487242;26;20002;-59
2024/04/14 13:25:55;;;;;;;4.80;2.33;;;;;;;;;;5489631;26;20403;-60
2024/04/14 13:28:24;;;;;;;9.88;3.42;;;;;;;;;;5489733;26;20010;-60
2024/04/14 13:30:50;;;;;;;6.38;2.88;;;;;;;;;;5489631;26;20514;-60
2024/04/14 13:33:19;;;;;;;4.20;2.60;;;;;;;;;;5489119;26;20010;-60
2024/04/14 13:35:45;;;;;;;5.03;2.28;;;;;;;;;;5489798;26;20021;-59
2024/04/14 13:38:14;;;;;;;4.10;2.22;;;;;;;;;;5489451;26;20468;-60
2024/04/14 13:40:40;;;;;;;4.18;2.60;;;;;;;;;;5489451;26;20014;-59
2024/04/14 13:43:11;;;;;;;5.45;2.72;;;;;;;;;;5489471;26;20514;-59
2024/04/14 13:45:38;;;;;;;5.07;2.15;;;;;;;;;;5489561;26;20431;-59
2024/04/14 13:48:07;;;;;;;4.68;2.35;;;;;;;;;;5489576;26;20346;-55
2024/04/14 13:50:32;;;;;;;4.57;2.80;;;;;;;;;;5489397;26;20013;-60
2024/04/14 13:53:02;;;;;;;6.95;2.97;;;;;;;;;;5489385;26;20018;-60
2024/04/14 13:55:29;;;;;;;3.67;2.50;;;;;;;;;;5489759;26;20709;-55
2024/04/14 13:57:58;;;;;;;4.18;2.40;;;;;;;;;;5489409;26;20013;-60
2024/04/14 14:00:26;;;;;;;6.03;2.33;;;;;;;;;;5489457;26;20402;-60
2024/04/14 14:02:55;;;;;;;5.00;2.63;;;;;;;;;;5489642;26;20079;-59
2024/04/14 14:05:21;;;;;;;5.20;2.63;;;;;;;;;;5489283;26;20010;-60
2024/04/14 14:07:50;;;;;;;4.28;2.90;;;;;;;;;;5489157;26;19998;-55
2024/04/14 14:10:16;;;;;;;5.18;2.95;;;;;;;;;;5489268;26;20517;-60
2024/04/14 14:12:45;;;;;;;4.60;2.50;;;;;;;;;;5488865;26;19998;-59
2024/04/14 14:15:10;;;;;;;4.40;2.30;;;;;;;;;;5489031;26;20008;-61
2024/04/14 14:17:42;;;;;;;5.30;2.72;;;;;;;;;;5489246;26;20002;-61
2024/04/14 14:20:08;;;;;;;5.85;3.28;;;;;;;;;;5489243;26;20021;-59
2024/04/14 14:22:37;;;;;;;6.43;3.97;;;;;;;;;;5488865;26;19998;-58
2024/04/14 14:25:03;;;;;;;4.47;2.70;;;;;;;;;;5489275;26;20002;-60
2024/04/14 14:27:31;;;;;;;4.05;2.70;;;;;;;;;;5488789;26;20034;-58
2024/04/14 14:29:57;;;;;;;4.07;2.25;;;;;;;;;;5488826;26;20010;-58
2024/04/14 14:32:26;;;;;;;4.80;2.50;;;;;;;;;;5488880;26;20017;-57
2024/04/14 14:37:41;;;;;;;5.05;2.80;;;;;;;;;;5491432;26;20508;-59
2024/04/14 14:40:10;;;;;;;4.72;2.80;;;;;;;;;;5488795;26;20010;-59
2024/04/14 14:42:38;;;;;;;4.82;2.83;;;;;;;;;;5488884;26;20347;-59
2024/04/14 14:45:08;;;;;;;4.10;2.40;;;;;;;;;;5488979;26;20082;-58
2024/04/14 14:47:34;;;;;;;4.68;2.65;;;;;;;;;;5488895;26;20002;-60
2024/04/14 14:50:05;;;;;;;6.40;3.10;;;;;;;;;;5488823;26;20088;-59